sensor_id;sensor_type;location;lat;lon;timestamp;P1;durP1;ratioP1;P2;durP2;ratioP2
48975;SDS011;34791;52.752;8.346;2022-10-31T11:54:20;35.85;;;20.70;;
48975;SDS011;34791;52.752;8.346;2022-10-31T11:56:46;32.60;;;18.83;;
48975;SDS011;34791;52.752;8.346;2022-10-31T11:59:18;32.42;;;18.88;;
48975;SDS011;34791;52.752;8.346;2022-10-31T12:01:48;35.08;;;18.58;;
48975;SDS011;34791;52.752;8.346;2022-10-31T12:04:14;34.42;;;19.90;;
48975;SDS011;34791;52.752;8.346;2022-10-31T12:06:42;36.10;;;18.65;;
48975;SDS011;34791;52.752;8.346;2022-10-31T12:11:40;30.23;;;17.60;;
48975;SDS011;34791;52.752;8.346;2022-10-31T12:19:20;32.40;;;19.23;;
48975;SDS011;34791;52.752;8.346;2022-10-31T12:24:27;35.90;;;20.02;;
48975;SDS011;34791;52.752;8.346;2022-10-31T12:29:28;37.25;;;20.67;;
48975;SDS011;34791;52.752;8.346;2022-10-31T12:37:15;32.38;;;18.85;;
48975;SDS011;34791;52.752;8.346;2022-10-31T12:39:50;32.53;;;18.42;;
48975;SDS011;34791;52.752;8.346;2022-10-31T12:42:35;33.67;;;20.73;;
48975;SDS011;34791;52.752;8.346;2022-10-31T12:57:33;43.75;;;23.55;;
48975;SDS011;34791;52.752;8.346;2022-10-31T13:00:03;40.53;;;23.98;;
48975;SDS011;34791;52.752;8.346;2022-10-31T13:05:05;39.20;;;22.05;;
48975;SDS011;34791;52.752;8.346;2022-10-31T13:07:34;35.55;;;21.45;;
48975;SDS011;34791;52.752;8.346;2022-10-31T13:10:04;41.38;;;24.40;;
48975;SDS011;34791;52.752;8.346;2022-10-31T13:12:31;44.65;;;23.70;;
48975;SDS011;34791;52.752;8.346;2022-10-31T13:14:58;47.13;;;25.42;;
48975;SDS011;34791;52.752;8.346;2022-10-31T13:17:30;41.40;;;23.55;;
48975;SDS011;34791;52.752;8.346;2022-10-31T13:22:56;47.33;;;25.00;;
48975;SDS011;34791;52.752;8.346;2022-10-31T13:25:26;42.58;;;23.77;;
48975;SDS011;34791;52.752;8.346;2022-10-31T13:28:00;39.60;;;24.20;;
48975;SDS011;34791;52.752;8.346;2022-10-31T13:30:27;41.05;;;23.83;;
48975;SDS011;34791;52.752;8.346;2022-10-31T13:32:58;42.25;;;24.17;;
48975;SDS011;34791;52.752;8.346;2022-10-31T13:38:20;39.60;;;22.40;;
48975;SDS011;34791;52.752;8.346;2022-10-31T13:40:44;43.95;;;22.95;;
48975;SDS011;34791;52.752;8.346;2022-10-31T13:45:36;35.40;;;18.67;;
48975;SDS011;34791;52.752;8.346;2022-10-31T13:50:40;39.72;;;22.75;;
48975;SDS011;34791;52.752;8.346;2022-10-31T13:53:35;40.13;;;21.88;;
48975;SDS011;34791;52.752;8.346;2022-10-31T13:58:37;37.45;;;21.05;;
48975;SDS011;34791;52.752;8.346;2022-10-31T14:03:30;41.17;;;20.88;;
48975;SDS011;34791;52.752;8.346;2022-10-31T14:05:58;36.92;;;22.17;;
48975;SDS011;34791;52.752;8.346;2022-10-31T14:08:23;39.83;;;22.05;;
48975;SDS011;34791;52.752;8.346;2022-10-31T14:10:52;33.38;;;20.10;;
48975;SDS011;34791;52.752;8.346;2022-10-31T14:13:23;35.42;;;20.08;;
48975;SDS011;34791;52.752;8.346;2022-10-31T14:18:21;33.42;;;19.05;;
48975;SDS011;34791;52.752;8.346;2022-10-31T14:20:47;33.80;;;17.20;;
48975;SDS011;34791;52.752;8.346;2022-10-31T14:28:41;27.27;;;16.52;;
48975;SDS011;34791;52.752;8.346;2022-10-31T14:31:52;33.67;;;16.35;;
48975;SDS011;34791;52.752;8.346;2022-10-31T14:33:53;31.98;;;16.42;;
48975;SDS011;34791;52.752;8.346;2022-10-31T14:36:21;29.00;;;15.25;;
48975;SDS011;34791;52.752;8.346;2022-10-31T14:38:54;26.65;;;15.25;;
48975;SDS011;34791;52.752;8.346;2022-10-31T14:46:49;29.45;;;17.55;;
48975;SDS011;34791;52.752;8.346;2022-10-31T14:49:28;32.72;;;17.38;;
48975;SDS011;34791;52.752;8.346;2022-10-31T14:51:56;31.88;;;17.70;;
48975;SDS011;34791;52.752;8.346;2022-10-31T14:54:30;29.35;;;17.02;;
48975;SDS011;34791;52.752;8.346;2022-10-31T14:56:59;33.78;;;17.55;;
48975;SDS011;34791;52.752;8.346;2022-10-31T14:59:28;32.63;;;18.23;;
48975;SDS011;34791;52.752;8.346;2022-10-31T15:02:07;31.08;;;16.90;;
48975;SDS011;34791;52.752;8.346;2022-10-31T15:04:34;30.35;;;17.25;;
48975;SDS011;34791;52.752;8.346;2022-10-31T15:07:08;30.52;;;16.42;;
48975;SDS011;34791;52.752;8.346;2022-10-31T15:09:35;33.55;;;17.58;;
48975;SDS011;34791;52.752;8.346;2022-10-31T15:14:46;33.85;;;17.98;;
48975;SDS011;34791;52.752;8.346;2022-10-31T15:17:11;36.00;;;19.90;;
48975;SDS011;34791;52.752;8.346;2022-10-31T15:19:37;35.70;;;18.75;;
48975;SDS011;34791;52.752;8.346;2022-10-31T15:22:02;34.83;;;18.38;;
48975;SDS011;34791;52.752;8.346;2022-10-31T15:24:35;34.30;;;19.80;;
48975;SDS011;34791;52.752;8.346;2022-10-31T15:27:01;40.15;;;19.98;;
48975;SDS011;34791;52.752;8.346;2022-10-31T15:29:26;39.50;;;22.75;;
48975;SDS011;34791;52.752;8.346;2022-10-31T15:31:53;41.08;;;22.02;;
48975;SDS011;34791;52.752;8.346;2022-10-31T15:35:02;40.28;;;22.90;;
48975;SDS011;34791;52.752;8.346;2022-10-31T15:37:14;42.10;;;23.98;;
48975;SDS011;34791;52.752;8.346;2022-10-31T15:39:40;46.92;;;25.10;;
48975;SDS011;34791;52.752;8.346;2022-10-31T15:42:13;42.53;;;21.35;;
48975;SDS011;34791;52.752;8.346;2022-10-31T15:44:40;47.88;;;25.80;;
48975;SDS011;34791;52.752;8.346;2022-10-31T15:47:07;50.92;;;26.17;;
48975;SDS011;34791;52.752;8.346;2022-10-31T15:49:41;49.83;;;26.35;;
48975;SDS011;34791;52.752;8.346;2022-10-31T15:54:32;55.43;;;28.97;;
48975;SDS011;34791;52.752;8.346;2022-10-31T15:56:57;47.97;;;27.23;;
48975;SDS011;34791;52.752;8.346;2022-10-31T15:59:24;55.58;;;28.00;;
48975;SDS011;34791;52.752;8.346;2022-10-31T16:02:00;51.93;;;27.93;;
48975;SDS011;34791;52.752;8.346;2022-10-31T16:04:26;51.15;;;28.08;;
48975;SDS011;34791;52.752;8.346;2022-10-31T16:09:35;51.30;;;28.50;;
48975;SDS011;34791;52.752;8.346;2022-10-31T16:12:00;54.93;;;27.80;;
48975;SDS011;34791;52.752;8.346;2022-10-31T16:14:26;52.73;;;27.27;;
48975;SDS011;34791;52.752;8.346;2022-10-31T16:16:54;51.67;;;28.83;;
48975;SDS011;34791;52.752;8.346;2022-10-31T16:19:21;57.03;;;29.03;;
48975;SDS011;34791;52.752;8.346;2022-10-31T16:21:49;52.47;;;28.63;;
48975;SDS011;34791;52.752;8.346;2022-10-31T16:24:22;59.60;;;29.23;;
48975;SDS011;34791;52.752;8.346;2022-10-31T16:26:48;52.80;;;28.63;;
48975;SDS011;34791;52.752;8.346;2022-10-31T16:29:28;51.73;;;27.27;;
48975;SDS011;34791;52.752;8.346;2022-10-31T16:31:53;56.80;;;28.30;;
48975;SDS011;34791;52.752;8.346;2022-10-31T16:34:22;61.17;;;29.93;;
48975;SDS011;34791;52.752;8.346;2022-10-31T16:36:47;63.30;;;30.60;;
48975;SDS011;34791;52.752;8.346;2022-10-31T16:39:13;65.50;;;30.03;;
48975;SDS011;34791;52.752;8.346;2022-10-31T16:41:40;57.40;;;30.10;;
48975;SDS011;34791;52.752;8.346;2022-10-31T16:44:11;57.67;;;29.30;;
48975;SDS011;34791;52.752;8.346;2022-10-31T16:46:38;60.03;;;26.63;;
48975;SDS011;34791;52.752;8.346;2022-10-31T16:49:03;53.77;;;26.67;;
48975;SDS011;34791;52.752;8.346;2022-10-31T16:51:28;52.43;;;26.60;;
48975;SDS011;34791;52.752;8.346;2022-10-31T16:53:54;67.63;;;31.30;;
48975;SDS011;34791;52.752;8.346;2022-10-31T16:56:26;64.80;;;31.07;;
48975;SDS011;34791;52.752;8.346;2022-10-31T16:58:52;64.13;;;31.40;;
48975;SDS011;34791;52.752;8.346;2022-10-31T17:01:17;64.27;;;31.13;;
48975;SDS011;34791;52.752;8.346;2022-10-31T17:03:42;69.17;;;32.80;;
48975;SDS011;34791;52.752;8.346;2022-10-31T17:06:17;71.27;;;33.27;;
48975;SDS011;34791;52.752;8.346;2022-10-31T17:08:42;63.70;;;30.70;;
48975;SDS011;34791;52.752;8.346;2022-10-31T17:11:08;70.90;;;31.40;;
48975;SDS011;34791;52.752;8.346;2022-10-31T17:13:38;72.10;;;33.45;;
48975;SDS011;34791;52.752;8.346;2022-10-31T17:16:03;71.73;;;31.87;;
48975;SDS011;34791;52.752;8.346;2022-10-31T17:18:29;70.83;;;32.27;;
48975;SDS011;34791;52.752;8.346;2022-10-31T17:20:58;79.30;;;34.53;;
48975;SDS011;34791;52.752;8.346;2022-10-31T17:23:24;85.30;;;35.00;;
48975;SDS011;34791;52.752;8.346;2022-10-31T17:25:49;74.73;;;33.57;;
48975;SDS011;34791;52.752;8.346;2022-10-31T17:28:15;85.03;;;36.30;;
48975;SDS011;34791;52.752;8.346;2022-10-31T17:30:40;88.57;;;36.23;;
48975;SDS011;34791;52.752;8.346;2022-10-31T17:33:06;84.57;;;35.07;;
48975;SDS011;34791;52.752;8.346;2022-10-31T17:35:33;76.37;;;34.17;;
48975;SDS011;34791;52.752;8.346;2022-10-31T17:38:00;81.77;;;36.20;;
48975;SDS011;34791;52.752;8.346;2022-10-31T17:40:25;76.80;;;33.10;;
48975;SDS011;34791;52.752;8.346;2022-10-31T17:42:51;80.30;;;33.67;;
48975;SDS011;34791;52.752;8.346;2022-10-31T17:45:16;75.80;;;30.37;;
48975;SDS011;34791;52.752;8.346;2022-10-31T17:47:42;76.33;;;31.00;;
48975;SDS011;34791;52.752;8.346;2022-10-31T17:50:07;68.80;;;27.03;;
48975;SDS011;34791;52.752;8.346;2022-10-31T17:52:33;74.03;;;32.77;;
48975;SDS011;34791;52.752;8.346;2022-10-31T17:54:58;88.37;;;33.90;;
48975;SDS011;34791;52.752;8.346;2022-10-31T17:57:23;71.13;;;29.10;;
48975;SDS011;34791;52.752;8.346;2022-10-31T17:59:48;73.00;;;31.47;;
48975;SDS011;34791;52.752;8.346;2022-10-31T18:02:14;74.00;;;29.90;;
48975;SDS011;34791;52.752;8.346;2022-10-31T18:04:39;63.77;;;25.77;;
48975;SDS011;34791;52.752;8.346;2022-10-31T18:07:05;60.00;;;25.00;;
48975;SDS011;34791;52.752;8.346;2022-10-31T18:09:30;68.47;;;30.47;;
48975;SDS011;34791;52.752;8.346;2022-10-31T18:11:55;67.60;;;28.37;;
48975;SDS011;34791;52.752;8.346;2022-10-31T18:14:20;64.20;;;24.93;;
48975;SDS011;34791;52.752;8.346;2022-10-31T18:16:46;67.50;;;27.87;;
48975;SDS011;34791;52.752;8.346;2022-10-31T18:19:11;65.93;;;26.23;;
48975;SDS011;34791;52.752;8.346;2022-10-31T18:21:37;67.33;;;27.13;;
48975;SDS011;34791;52.752;8.346;2022-10-31T18:24:02;62.23;;;27.50;;
48975;SDS011;34791;52.752;8.346;2022-10-31T18:26:28;58.50;;;24.63;;
48975;SDS011;34791;52.752;8.346;2022-10-31T18:28:53;57.03;;;23.93;;
48975;SDS011;34791;52.752;8.346;2022-10-31T18:31:19;53.17;;;23.17;;
48975;SDS011;34791;52.752;8.346;2022-10-31T18:33:44;63.20;;;26.30;;
48975;SDS011;34791;52.752;8.346;2022-10-31T18:36:09;54.63;;;24.73;;
48975;SDS011;34791;52.752;8.346;2022-10-31T18:38:37;54.40;;;22.67;;
48975;SDS011;34791;52.752;8.346;2022-10-31T18:41:02;59.53;;;24.47;;
48975;SDS011;34791;52.752;8.346;2022-10-31T18:43:27;53.27;;;24.73;;
48975;SDS011;34791;52.752;8.346;2022-10-31T18:45:53;51.53;;;21.70;;
48975;SDS011;34791;52.752;8.346;2022-10-31T18:48:18;43.53;;;17.40;;
48975;SDS011;34791;52.752;8.346;2022-10-31T18:50:43;57.50;;;24.00;;
48975;SDS011;34791;52.752;8.346;2022-10-31T18:53:08;53.57;;;22.63;;
48975;SDS011;34791;52.752;8.346;2022-10-31T18:55:37;47.67;;;19.50;;
48975;SDS011;34791;52.752;8.346;2022-10-31T18:58:02;54.43;;;21.93;;
48975;SDS011;34791;52.752;8.346;2022-10-31T19:00:28;51.50;;;23.67;;
48975;SDS011;34791;52.752;8.346;2022-10-31T19:02:53;51.63;;;21.87;;
48975;SDS011;34791;52.752;8.346;2022-10-31T19:05:18;51.17;;;21.63;;
48975;SDS011;34791;52.752;8.346;2022-10-31T19:07:45;51.40;;;23.23;;
48975;SDS011;34791;52.752;8.346;2022-10-31T19:10:10;51.03;;;20.60;;
48975;SDS011;34791;52.752;8.346;2022-10-31T19:12:35;42.83;;;17.53;;
48975;SDS011;34791;52.752;8.346;2022-10-31T19:15:01;50.57;;;21.97;;
48975;SDS011;34791;52.752;8.346;2022-10-31T19:17:26;47.03;;;21.50;;
48975;SDS011;34791;52.752;8.346;2022-10-31T19:19:51;49.70;;;19.77;;
48975;SDS011;34791;52.752;8.346;2022-10-31T19:22:16;40.10;;;18.00;;
48975;SDS011;34791;52.752;8.346;2022-10-31T19:24:42;46.60;;;21.10;;
48975;SDS011;34791;52.752;8.346;2022-10-31T19:27:10;41.23;;;17.67;;
48975;SDS011;34791;52.752;8.346;2022-10-31T19:29:35;41.47;;;16.67;;
48975;SDS011;34791;52.752;8.346;2022-10-31T19:32:00;41.90;;;19.20;;
48975;SDS011;34791;52.752;8.346;2022-10-31T19:34:26;39.83;;;19.03;;
48975;SDS011;34791;52.752;8.346;2022-10-31T19:36:51;47.90;;;20.40;;
48975;SDS011;34791;52.752;8.346;2022-10-31T19:39:17;45.00;;;18.87;;
48975;SDS011;34791;52.752;8.346;2022-10-31T19:41:42;46.43;;;19.50;;
48975;SDS011;34791;52.752;8.346;2022-10-31T19:44:07;42.37;;;19.87;;
48975;SDS011;34791;52.752;8.346;2022-10-31T19:46:33;41.47;;;20.33;;
48975;SDS011;34791;52.752;8.346;2022-10-31T19:48:58;41.80;;;19.53;;
48975;SDS011;34791;52.752;8.346;2022-10-31T19:51:24;37.10;;;16.80;;
48975;SDS011;34791;52.752;8.346;2022-10-31T19:53:50;41.67;;;18.90;;
48975;SDS011;34791;52.752;8.346;2022-10-31T19:56:17;41.97;;;20.47;;
48975;SDS011;34791;52.752;8.346;2022-10-31T19:58:43;44.23;;;18.60;;
48975;SDS011;34791;52.752;8.346;2022-10-31T20:01:09;44.17;;;19.97;;
48975;SDS011;34791;52.752;8.346;2022-10-31T20:03:39;46.20;;;19.77;;
48975;SDS011;34791;52.752;8.346;2022-10-31T20:06:06;44.20;;;20.23;;
48975;SDS011;34791;52.752;8.346;2022-10-31T20:08:31;43.90;;;20.20;;
48975;SDS011;34791;52.752;8.346;2022-10-31T20:11:00;51.33;;;20.47;;
48975;SDS011;34791;52.752;8.346;2022-10-31T20:13:28;44.27;;;19.90;;
48975;SDS011;34791;52.752;8.346;2022-10-31T20:16:01;44.00;;;19.73;;
48975;SDS011;34791;52.752;8.346;2022-10-31T20:18:27;47.63;;;20.67;;
48975;SDS011;34791;52.752;8.346;2022-10-31T20:20:53;53.90;;;20.67;;
48975;SDS011;34791;52.752;8.346;2022-10-31T20:23:19;44.97;;;19.93;;
48975;SDS011;34791;52.752;8.346;2022-10-31T20:25:47;43.83;;;20.50;;
48975;SDS011;34791;52.752;8.346;2022-10-31T20:28:13;38.27;;;17.07;;
48975;SDS011;34791;52.752;8.346;2022-10-31T20:30:38;38.70;;;18.13;;
48975;SDS011;34791;52.752;8.346;2022-10-31T20:33:03;40.40;;;18.00;;
48975;SDS011;34791;52.752;8.346;2022-10-31T20:35:28;47.93;;;20.40;;
48975;SDS011;34791;52.752;8.346;2022-10-31T20:37:53;42.27;;;19.63;;
48975;SDS011;34791;52.752;8.346;2022-10-31T20:40:19;42.90;;;20.27;;
48975;SDS011;34791;52.752;8.346;2022-10-31T20:42:44;46.70;;;18.77;;
48975;SDS011;34791;52.752;8.346;2022-10-31T20:45:09;45.10;;;19.87;;
48975;SDS011;34791;52.752;8.346;2022-10-31T20:47:35;43.43;;;18.80;;
48975;SDS011;34791;52.752;8.346;2022-10-31T20:50:00;41.87;;;19.77;;
48975;SDS011;34791;52.752;8.346;2022-10-31T20:52:25;40.33;;;18.57;;
48975;SDS011;34791;52.752;8.346;2022-10-31T20:54:51;42.47;;;20.93;;
48975;SDS011;34791;52.752;8.346;2022-10-31T20:57:16;45.53;;;21.30;;
48975;SDS011;34791;52.752;8.346;2022-10-31T20:59:41;44.67;;;20.73;;
48975;SDS011;34791;52.752;8.346;2022-10-31T21:02:07;45.07;;;21.20;;
48975;SDS011;34791;52.752;8.346;2022-10-31T21:04:32;45.23;;;21.60;;
48975;SDS011;34791;52.752;8.346;2022-10-31T21:06:58;45.60;;;21.63;;
48975;SDS011;34791;52.752;8.346;2022-10-31T21:09:23;44.27;;;21.53;;
48975;SDS011;34791;52.752;8.346;2022-10-31T21:11:48;45.20;;;20.07;;
48975;SDS011;34791;52.752;8.346;2022-10-31T21:14:13;46.53;;;20.07;;
48975;SDS011;34791;52.752;8.346;2022-10-31T21:16:39;44.70;;;19.87;;
48975;SDS011;34791;52.752;8.346;2022-10-31T21:19:04;46.97;;;22.43;;
48975;SDS011;34791;52.752;8.346;2022-10-31T21:21:33;46.10;;;21.87;;
48975;SDS011;34791;52.752;8.346;2022-10-31T21:24:00;47.00;;;20.80;;
48975;SDS011;34791;52.752;8.346;2022-10-31T21:26:26;44.73;;;20.57;;
48975;SDS011;34791;52.752;8.346;2022-10-31T21:28:53;45.83;;;21.67;;
48975;SDS011;34791;52.752;8.346;2022-10-31T21:31:18;48.80;;;21.33;;
48975;SDS011;34791;52.752;8.346;2022-10-31T21:33:44;51.63;;;23.07;;
48975;SDS011;34791;52.752;8.346;2022-10-31T21:36:09;49.60;;;23.50;;
48975;SDS011;34791;52.752;8.346;2022-10-31T21:38:35;49.10;;;21.03;;
48975;SDS011;34791;52.752;8.346;2022-10-31T21:41:04;46.40;;;21.00;;
48975;SDS011;34791;52.752;8.346;2022-10-31T21:43:30;55.90;;;22.80;;
48975;SDS011;34791;52.752;8.346;2022-10-31T21:46:00;49.77;;;22.97;;
48975;SDS011;34791;52.752;8.346;2022-10-31T21:48:25;50.77;;;23.33;;
48975;SDS011;34791;52.752;8.346;2022-10-31T21:50:52;48.43;;;22.87;;
48975;SDS011;34791;52.752;8.346;2022-10-31T21:53:18;49.53;;;22.67;;
48975;SDS011;34791;52.752;8.346;2022-10-31T21:56:02;50.47;;;23.17;;
48975;SDS011;34791;52.752;8.346;2022-10-31T21:58:28;54.93;;;24.03;;
48975;SDS011;34791;52.752;8.346;2022-10-31T22:00:53;52.77;;;23.90;;
48975;SDS011;34791;52.752;8.346;2022-10-31T22:03:19;55.70;;;24.87;;
48975;SDS011;34791;52.752;8.346;2022-10-31T22:05:44;60.40;;;24.80;;
48975;SDS011;34791;52.752;8.346;2022-10-31T22:08:09;57.47;;;24.13;;
48975;SDS011;34791;52.752;8.346;2022-10-31T22:10:34;56.93;;;24.90;;
48975;SDS011;34791;52.752;8.346;2022-10-31T22:13:00;54.50;;;23.33;;
48975;SDS011;34791;52.752;8.346;2022-10-31T22:15:25;61.90;;;25.70;;
48975;SDS011;34791;52.752;8.346;2022-10-31T22:17:50;61.03;;;26.27;;
48975;SDS011;34791;52.752;8.346;2022-10-31T22:20:15;59.93;;;25.77;;
48975;SDS011;34791;52.752;8.346;2022-10-31T22:22:41;65.70;;;26.27;;
48975;SDS011;34791;52.752;8.346;2022-10-31T22:25:06;64.30;;;27.30;;
48975;SDS011;34791;52.752;8.346;2022-10-31T22:27:31;64.80;;;27.23;;
48975;SDS011;34791;52.752;8.346;2022-10-31T22:29:56;61.43;;;26.40;;
48975;SDS011;34791;52.752;8.346;2022-10-31T22:32:22;63.33;;;27.77;;
